Pagina principale
METAR-TAF:

METAR-TAF

Aeroporti :

Aeroporto di Győr-Pér

Győr, Ungheria

latitudine: 47-37-28N, longitudine: 017-48-49E, altezza: 129 m

Osservazione

Il bollettino è stato emesso 35 minuti fa, alle 14:45 UTC
Vento 8 kt da ovest
Temperature 5°C
Umidità 70%
Pressione 1016 hPa
Visibilità 10 km o più

METAR: LHPR 061445Z AUTO 28008KT 9999 ////// 05/00 Q1016

Ora: 16:20 (15:20 UTC)

Previsione

Il bollettino è stato emesso 3 ore e 20 minuti fa, alle 12:00 UTC
Previsione valida dal 06 alle 12 UTC al 06 alle 21 UTC
Vento 15 kt da ovest/nord-ovest
Visibilità 10 km o più
Nuvoloso ad un'altezza di 2500 ft
Temporaneamente
dal 06 alle 12 UTC al 06 alle 16 UTC
Visibilità 10 km o più
nessuna nube inferiore a 1500 m e nessun cumulonembo
Evoluzione graduale
dal 06 alle 16 UTC al 06 alle 19 UTC
Vento 5 kt da ovest
Visibilità: 5000 m
foschia

TAF: LHPR 061200Z 0612/0621 29015KT 9999 BKN025 TEMPO 0612/0616 CAVOK BECMG 0616/0619 27005KT 5000 BR

Osservazioni e previsioni meteorologiche di più di 4000 aeroporti (messaggi METAR e TAF).

Le stazioni disponibili sono rappresentate dai dischi gialli e rossi sulla carta.

Puntare il mouse per vedere il nome della stazione.

Clicca sopra per visualizzare le osservazioni e previsioni meteorologiche.

Per cambiare la mappa : fare clic sui pulsanti verdi con una croce nera per ingrandire, il pulsante verde con un trattino per diminuire, o sulla freccia verde per le mappe adiacenti.


METAR-TAF: